sensor_id;sensor_type;location;lat;lon;timestamp;P1;durP1;ratioP1;P2;durP2;ratioP2
17631;SDS011;8934;51.194;17.150;2022-09-02T00:02:13;3.42;;;2.20;;
17631;SDS011;8934;51.194;17.150;2022-09-02T00:05:02;2.17;;;2.00;;
17631;SDS011;8934;51.194;17.150;2022-09-02T00:07:51;1.88;;;1.67;;
17631;SDS011;8934;51.194;17.150;2022-09-02T00:10:40;1.88;;;1.63;;
17631;SDS011;8934;51.194;17.150;2022-09-02T00:13:30;2.05;;;1.92;;
17631;SDS011;8934;51.194;17.150;2022-09-02T00:16:18;1.83;;;1.73;;
17631;SDS011;8934;51.194;17.150;2022-09-02T00:19:09;2.05;;;1.90;;
17631;SDS011;8934;51.194;17.150;2022-09-02T00:21:57;2.00;;;1.80;;
17631;SDS011;8934;51.194;17.150;2022-09-02T00:24:47;1.77;;;1.60;;
17631;SDS011;8934;51.194;17.150;2022-09-02T00:27:35;2.40;;;1.80;;
17631;SDS011;8934;51.194;17.150;2022-09-02T00:30:23;2.17;;;1.90;;
17631;SDS011;8934;51.194;17.150;2022-09-02T00:33:11;1.88;;;1.77;;
17631;SDS011;8934;51.194;17.150;2022-09-02T00:36:01;2.05;;;1.90;;
17631;SDS011;8934;51.194;17.150;2022-09-02T00:38:51;1.98;;;1.80;;
17631;SDS011;8934;51.194;17.150;2022-09-02T00:41:39;2.40;;;1.77;;
17631;SDS011;8934;51.194;17.150;2022-09-02T00:47:34;2.03;;;1.77;;
17631;SDS011;8934;51.194;17.150;2022-09-02T00:50:23;2.47;;;2.22;;
17631;SDS011;8934;51.194;17.150;2022-09-02T00:53:17;2.08;;;1.90;;
17631;SDS011;8934;51.194;17.150;2022-09-02T00:56:06;2.25;;;2.05;;
17631;SDS011;8934;51.194;17.150;2022-09-02T00:58:58;1.98;;;1.77;;
17631;SDS011;8934;51.194;17.150;2022-09-02T01:01:47;2.60;;;1.95;;
17631;SDS011;8934;51.194;17.150;2022-09-02T01:04:35;1.88;;;1.77;;
17631;SDS011;8934;51.194;17.150;2022-09-02T01:07:23;1.83;;;1.73;;
17631;SDS011;8934;51.194;17.150;2022-09-02T01:10:20;2.60;;;1.77;;
17631;SDS011;8934;51.194;17.150;2022-09-02T01:13:11;1.92;;;1.65;;
17631;SDS011;8934;51.194;17.150;2022-09-02T01:16:03;2.10;;;1.98;;
17631;SDS011;8934;51.194;17.150;2022-09-02T01:18:57;2.08;;;1.83;;
17631;SDS011;8934;51.194;17.150;2022-09-02T01:21:49;1.75;;;1.65;;
17631;SDS011;8934;51.194;17.150;2022-09-02T01:24:37;2.53;;;2.00;;
17631;SDS011;8934;51.194;17.150;2022-09-02T01:27:25;2.08;;;1.90;;
17631;SDS011;8934;51.194;17.150;2022-09-02T01:30:17;1.80;;;1.70;;
17631;SDS011;8934;51.194;17.150;2022-09-02T01:33:08;2.17;;;1.90;;
17631;SDS011;8934;51.194;17.150;2022-09-02T01:35:56;1.77;;;1.67;;
17631;SDS011;8934;51.194;17.150;2022-09-02T01:38:45;1.67;;;1.58;;
17631;SDS011;8934;51.194;17.150;2022-09-02T01:41:33;1.75;;;1.65;;
17631;SDS011;8934;51.194;17.150;2022-09-02T01:44:21;1.50;;;1.40;;
17631;SDS011;8934;51.194;17.150;2022-09-02T01:47:09;1.70;;;1.60;;
17631;SDS011;8934;51.194;17.150;2022-09-02T01:49:58;1.60;;;1.50;;
17631;SDS011;8934;51.194;17.150;2022-09-02T01:52:47;1.77;;;1.67;;
17631;SDS011;8934;51.194;17.150;2022-09-02T01:55:37;1.60;;;1.50;;
17631;SDS011;8934;51.194;17.150;2022-09-02T01:58:25;1.65;;;1.55;;
17631;SDS011;8934;51.194;17.150;2022-09-02T02:01:13;2.67;;;2.03;;
17631;SDS011;8934;51.194;17.150;2022-09-02T02:04:03;1.80;;;1.70;;
17631;SDS011;8934;51.194;17.150;2022-09-02T02:06:59;1.90;;;1.38;;
17631;SDS011;8934;51.194;17.150;2022-09-02T02:09:48;1.55;;;1.45;;
17631;SDS011;8934;51.194;17.150;2022-09-02T02:12:40;1.48;;;1.38;;
17631;SDS011;8934;51.194;17.150;2022-09-02T02:15:28;1.67;;;1.58;;
17631;SDS011;8934;51.194;17.150;2022-09-02T02:18:15;2.92;;;1.60;;
17631;SDS011;8934;51.194;17.150;2022-09-02T02:21:03;1.60;;;1.50;;
17631;SDS011;8934;51.194;17.150;2022-09-02T02:23:51;1.75;;;1.65;;
17631;SDS011;8934;51.194;17.150;2022-09-02T02:26:39;2.83;;;1.70;;
17631;SDS011;8934;51.194;17.150;2022-09-02T02:29:30;1.77;;;1.58;;
17631;SDS011;8934;51.194;17.150;2022-09-02T02:32:18;1.80;;;1.70;;
17631;SDS011;8934;51.194;17.150;2022-09-02T02:35:07;2.20;;;1.55;;
17631;SDS011;8934;51.194;17.150;2022-09-02T02:37:56;1.90;;;1.80;;
17631;SDS011;8934;51.194;17.150;2022-09-02T02:40:48;1.67;;;1.58;;
17631;SDS011;8934;51.194;17.150;2022-09-02T02:43:40;1.65;;;1.55;;
17631;SDS011;8934;51.194;17.150;2022-09-02T02:46:31;1.67;;;1.58;;
17631;SDS011;8934;51.194;17.150;2022-09-02T02:49:20;1.88;;;1.65;;
17631;SDS011;8934;51.194;17.150;2022-09-02T02:52:08;1.60;;;1.50;;
17631;SDS011;8934;51.194;17.150;2022-09-02T02:54:57;1.70;;;1.60;;
17631;SDS011;8934;51.194;17.150;2022-09-02T02:57:45;1.70;;;1.60;;
17631;SDS011;8934;51.194;17.150;2022-09-02T03:00:36;2.25;;;1.25;;
17631;SDS011;8934;51.194;17.150;2022-09-02T03:03:25;1.40;;;1.30;;
17631;SDS011;8934;51.194;17.150;2022-09-02T03:06:15;3.05;;;1.80;;
17631;SDS011;8934;51.194;17.150;2022-09-02T03:09:11;2.17;;;1.50;;
17631;SDS011;8934;51.194;17.150;2022-09-02T03:11:59;1.80;;;1.70;;
17631;SDS011;8934;51.194;17.150;2022-09-02T03:14:49;1.90;;;1.67;;
17631;SDS011;8934;51.194;17.150;2022-09-02T03:17:38;1.48;;;1.38;;
17631;SDS011;8934;51.194;17.150;2022-09-02T03:20:27;1.73;;;1.63;;
17631;SDS011;8934;51.194;17.150;2022-09-02T03:23:20;2.00;;;1.55;;
17631;SDS011;8934;51.194;17.150;2022-09-02T03:26:08;1.75;;;1.65;;
17631;SDS011;8934;51.194;17.150;2022-09-02T03:28:57;1.50;;;1.40;;
17631;SDS011;8934;51.194;17.150;2022-09-02T03:31:45;1.52;;;1.42;;
17631;SDS011;8934;51.194;17.150;2022-09-02T03:34:34;1.60;;;1.50;;
17631;SDS011;8934;51.194;17.150;2022-09-02T03:37:23;1.60;;;1.50;;
17631;SDS011;8934;51.194;17.150;2022-09-02T03:40:12;1.90;;;1.60;;
17631;SDS011;8934;51.194;17.150;2022-09-02T03:43:05;1.90;;;1.52;;
17631;SDS011;8934;51.194;17.150;2022-09-02T03:45:54;1.83;;;1.60;;
17631;SDS011;8934;51.194;17.150;2022-09-02T03:48:42;1.55;;;1.45;;
17631;SDS011;8934;51.194;17.150;2022-09-02T03:51:31;1.70;;;1.60;;
17631;SDS011;8934;51.194;17.150;2022-09-02T03:54:21;1.40;;;1.30;;
17631;SDS011;8934;51.194;17.150;2022-09-02T03:57:08;1.42;;;1.33;;
17631;SDS011;8934;51.194;17.150;2022-09-02T03:59:57;1.95;;;1.35;;
17631;SDS011;8934;51.194;17.150;2022-09-02T04:02:44;2.05;;;1.60;;
17631;SDS011;8934;51.194;17.150;2022-09-02T04:05:36;1.95;;;1.85;;
17631;SDS011;8934;51.194;17.150;2022-09-02T04:08:26;2.00;;;1.70;;
17631;SDS011;8934;51.194;17.150;2022-09-02T04:11:19;1.60;;;1.50;;
17631;SDS011;8934;51.194;17.150;2022-09-02T04:14:11;1.52;;;1.40;;
17631;SDS011;8934;51.194;17.150;2022-09-02T04:16:59;1.50;;;1.40;;
17631;SDS011;8934;51.194;17.150;2022-09-02T04:19:47;2.05;;;1.45;;
17631;SDS011;8934;51.194;17.150;2022-09-02T04:22:35;1.40;;;1.30;;
17631;SDS011;8934;51.194;17.150;2022-09-02T04:25:23;1.83;;;1.52;;
17631;SDS011;8934;51.194;17.150;2022-09-02T04:28:16;1.70;;;1.60;;
17631;SDS011;8934;51.194;17.150;2022-09-02T04:31:06;1.60;;;1.50;;
17631;SDS011;8934;51.194;17.150;2022-09-02T04:33:58;1.80;;;1.70;;
17631;SDS011;8934;51.194;17.150;2022-09-02T04:36:46;2.22;;;1.65;;
17631;SDS011;8934;51.194;17.150;2022-09-02T04:39:36;1.63;;;1.25;;
17631;SDS011;8934;51.194;17.150;2022-09-02T04:42:24;1.83;;;1.45;;
17631;SDS011;8934;51.194;17.150;2022-09-02T04:45:14;1.42;;;1.33;;
17631;SDS011;8934;51.194;17.150;2022-09-02T04:48:02;1.77;;;1.67;;
17631;SDS011;8934;51.194;17.150;2022-09-02T04:50:51;1.60;;;1.50;;
17631;SDS011;8934;51.194;17.150;2022-09-02T04:53:39;1.70;;;1.60;;
17631;SDS011;8934;51.194;17.150;2022-09-02T04:56:28;1.70;;;1.55;;
17631;SDS011;8934;51.194;17.150;2022-09-02T04:59:18;2.17;;;1.85;;
17631;SDS011;8934;51.194;17.150;2022-09-02T05:02:18;2.05;;;1.60;;
17631;SDS011;8934;51.194;17.150;2022-09-02T05:05:06;1.90;;;1.70;;
17631;SDS011;8934;51.194;17.150;2022-09-02T05:07:57;2.85;;;1.30;;
17631;SDS011;8934;51.194;17.150;2022-09-02T05:10:46;3.13;;;1.65;;
17631;SDS011;8934;51.194;17.150;2022-09-02T05:13:35;1.70;;;1.60;;
17631;SDS011;8934;51.194;17.150;2022-09-02T05:16:26;2.95;;;2.15;;
17631;SDS011;8934;51.194;17.150;2022-09-02T05:19:18;2.42;;;2.22;;
17631;SDS011;8934;51.194;17.150;2022-09-02T05:22:08;2.00;;;1.88;;
17631;SDS011;8934;51.194;17.150;2022-09-02T05:24:59;2.28;;;1.90;;
17631;SDS011;8934;51.194;17.150;2022-09-02T05:27:48;2.67;;;2.42;;
17631;SDS011;8934;51.194;17.150;2022-09-02T05:30:36;2.88;;;2.50;;
17631;SDS011;8934;51.194;17.150;2022-09-02T05:33:27;4.00;;;2.95;;
17631;SDS011;8934;51.194;17.150;2022-09-02T05:36:18;3.05;;;2.85;;
17631;SDS011;8934;51.194;17.150;2022-09-02T05:39:08;3.10;;;2.90;;
17631;SDS011;8934;51.194;17.150;2022-09-02T05:41:56;4.35;;;3.03;;
17631;SDS011;8934;51.194;17.150;2022-09-02T05:44:44;3.80;;;3.50;;
17631;SDS011;8934;51.194;17.150;2022-09-02T05:47:37;2.88;;;2.38;;
17631;SDS011;8934;51.194;17.150;2022-09-02T05:50:25;3.15;;;2.85;;
17631;SDS011;8934;51.194;17.150;2022-09-02T05:53:18;3.25;;;2.95;;
17631;SDS011;8934;51.194;17.150;2022-09-02T05:56:06;2.78;;;2.58;;
17631;SDS011;8934;51.194;17.150;2022-09-02T05:58:54;5.22;;;2.83;;
17631;SDS011;8934;51.194;17.150;2022-09-02T06:01:44;2.75;;;2.55;;
17631;SDS011;8934;51.194;17.150;2022-09-02T06:04:35;2.95;;;2.67;;
17631;SDS011;8934;51.194;17.150;2022-09-02T06:07:24;3.55;;;2.58;;
17631;SDS011;8934;51.194;17.150;2022-09-02T06:10:16;3.30;;;2.42;;
17631;SDS011;8934;51.194;17.150;2022-09-02T06:13:04;2.58;;;2.38;;
17631;SDS011;8934;51.194;17.150;2022-09-02T06:15:52;2.70;;;2.50;;
17631;SDS011;8934;51.194;17.150;2022-09-02T06:18:45;3.00;;;2.30;;
17631;SDS011;8934;51.194;17.150;2022-09-02T06:21:34;2.40;;;2.20;;
17631;SDS011;8934;51.194;17.150;2022-09-02T06:24:23;2.50;;;2.30;;
17631;SDS011;8934;51.194;17.150;2022-09-02T06:27:12;2.83;;;2.60;;
17631;SDS011;8934;51.194;17.150;2022-09-02T06:30:04;3.20;;;1.98;;
17631;SDS011;8934;51.194;17.150;2022-09-02T06:32:53;2.55;;;2.33;;
17631;SDS011;8934;51.194;17.150;2022-09-02T06:35:42;3.90;;;2.58;;
17631;SDS011;8934;51.194;17.150;2022-09-02T06:38:35;3.45;;;2.45;;
17631;SDS011;8934;51.194;17.150;2022-09-02T06:41:31;2.72;;;2.50;;
17631;SDS011;8934;51.194;17.150;2022-09-02T06:44:25;2.60;;;2.40;;
17631;SDS011;8934;51.194;17.150;2022-09-02T06:47:17;3.92;;;2.35;;
17631;SDS011;8934;51.194;17.150;2022-09-02T06:50:05;2.67;;;2.47;;
17631;SDS011;8934;51.194;17.150;2022-09-02T06:52:53;3.83;;;2.70;;
17631;SDS011;8934;51.194;17.150;2022-09-02T06:55:43;2.70;;;2.50;;
17631;SDS011;8934;51.194;17.150;2022-09-02T06:58:32;2.25;;;2.15;;
17631;SDS011;8934;51.194;17.150;2022-09-02T07:01:22;3.58;;;2.35;;
17631;SDS011;8934;51.194;17.150;2022-09-02T07:04:13;2.42;;;2.22;;
17631;SDS011;8934;51.194;17.150;2022-09-02T07:07:19;2.15;;;2.05;;
17631;SDS011;8934;51.194;17.150;2022-09-02T07:10:20;2.33;;;1.90;;
17631;SDS011;8934;51.194;17.150;2022-09-02T07:13:12;2.47;;;2.17;;
17631;SDS011;8934;51.194;17.150;2022-09-02T07:16:00;2.25;;;1.80;;
17631;SDS011;8934;51.194;17.150;2022-09-02T07:18:50;4.53;;;3.20;;
17631;SDS011;8934;51.194;17.150;2022-09-02T07:21:38;5.03;;;3.50;;
17631;SDS011;8934;51.194;17.150;2022-09-02T07:24:27;2.90;;;1.65;;
17631;SDS011;8934;51.194;17.150;2022-09-02T07:27:15;1.70;;;1.50;;
17631;SDS011;8934;51.194;17.150;2022-09-02T07:30:07;1.25;;;1.15;;
17631;SDS011;8934;51.194;17.150;2022-09-02T07:32:58;1.73;;;1.45;;
17631;SDS011;8934;51.194;17.150;2022-09-02T07:35:48;1.40;;;1.30;;
17631;SDS011;8934;51.194;17.150;2022-09-02T07:38:39;1.30;;;1.20;;
17631;SDS011;8934;51.194;17.150;2022-09-02T07:41:29;2.80;;;1.52;;
17631;SDS011;8934;51.194;17.150;2022-09-02T07:44:18;3.42;;;2.70;;
17631;SDS011;8934;51.194;17.150;2022-09-02T07:47:09;2.50;;;2.30;;
17631;SDS011;8934;51.194;17.150;2022-09-02T07:50:02;4.25;;;2.90;;
17631;SDS011;8934;51.194;17.150;2022-09-02T07:53:16;1.23;;;1.13;;
17631;SDS011;8934;51.194;17.150;2022-09-02T07:56:06;1.05;;;1.02;;
17631;SDS011;8934;51.194;17.150;2022-09-02T07:58:54;1.67;;;1.58;;
17631;SDS011;8934;51.194;17.150;2022-09-02T08:01:43;1.20;;;1.10;;
17631;SDS011;8934;51.194;17.150;2022-09-02T08:04:33;2.20;;;0.82;;
17631;SDS011;8934;51.194;17.150;2022-09-02T08:07:25;0.75;;;0.75;;
17631;SDS011;8934;51.194;17.150;2022-09-02T08:10:14;1.73;;;1.13;;
17631;SDS011;8934;51.194;17.150;2022-09-02T08:13:02;0.63;;;0.63;;
17631;SDS011;8934;51.194;17.150;2022-09-02T08:15:51;1.02;;;0.68;;
17631;SDS011;8934;51.194;17.150;2022-09-02T08:18:39;3.85;;;0.93;;
17631;SDS011;8934;51.194;17.150;2022-09-02T08:21:27;1.48;;;0.80;;
17631;SDS011;8934;51.194;17.150;2022-09-02T08:24:15;3.10;;;0.80;;
17631;SDS011;8934;51.194;17.150;2022-09-02T08:27:04;1.27;;;0.63;;
17631;SDS011;8934;51.194;17.150;2022-09-02T08:29:52;0.63;;;0.63;;
17631;SDS011;8934;51.194;17.150;2022-09-02T08:32:40;0.85;;;0.85;;
17631;SDS011;8934;51.194;17.150;2022-09-02T08:35:28;0.98;;;0.98;;
17631;SDS011;8934;51.194;17.150;2022-09-02T08:38:16;1.23;;;0.98;;
17631;SDS011;8934;51.194;17.150;2022-09-02T08:41:10;1.35;;;1.00;;
17631;SDS011;8934;51.194;17.150;2022-09-02T08:44:01;0.70;;;0.70;;
17631;SDS011;8934;51.194;17.150;2022-09-02T08:46:50;1.20;;;0.85;;
17631;SDS011;8934;51.194;17.150;2022-09-02T08:49:42;4.13;;;0.85;;
17631;SDS011;8934;51.194;17.150;2022-09-02T08:52:35;0.93;;;0.70;;
17631;SDS011;8934;51.194;17.150;2022-09-02T08:55:28;2.80;;;0.98;;
17631;SDS011;8934;51.194;17.150;2022-09-02T08:58:22;0.90;;;0.90;;
17631;SDS011;8934;51.194;17.150;2022-09-02T09:01:16;0.70;;;0.70;;
17631;SDS011;8934;51.194;17.150;2022-09-02T09:04:13;0.75;;;0.70;;
17631;SDS011;8934;51.194;17.150;2022-09-02T09:07:17;1.90;;;0.80;;
17631;SDS011;8934;51.194;17.150;2022-09-02T09:10:15;1.20;;;1.00;;
17631;SDS011;8934;51.194;17.150;2022-09-02T09:13:18;0.82;;;0.60;;
17631;SDS011;8934;51.194;17.150;2022-09-02T09:16:20;0.50;;;0.50;;
17631;SDS011;8934;51.194;17.150;2022-09-02T09:19:20;0.65;;;0.60;;
17631;SDS011;8934;51.194;17.150;2022-09-02T09:22:17;0.85;;;0.80;;
17631;SDS011;8934;51.194;17.150;2022-09-02T09:25:08;0.65;;;0.50;;
17631;SDS011;8934;51.194;17.150;2022-09-02T09:27:59;2.25;;;0.75;;
17631;SDS011;8934;51.194;17.150;2022-09-02T09:30:47;0.63;;;0.57;;
17631;SDS011;8934;51.194;17.150;2022-09-02T09:33:36;0.95;;;0.70;;
17631;SDS011;8934;51.194;17.150;2022-09-02T09:36:42;0.50;;;0.50;;
17631;SDS011;8934;51.194;17.150;2022-09-02T09:39:34;1.23;;;0.70;;
17631;SDS011;8934;51.194;17.150;2022-09-02T09:42:29;0.98;;;0.45;;
17631;SDS011;8934;51.194;17.150;2022-09-02T09:45:19;1.17;;;0.70;;
17631;SDS011;8934;51.194;17.150;2022-09-02T09:48:22;0.60;;;0.60;;
17631;SDS011;8934;51.194;17.150;2022-09-02T09:51:16;0.80;;;0.80;;
17631;SDS011;8934;51.194;17.150;2022-09-02T09:54:13;0.50;;;0.50;;
17631;SDS011;8934;51.194;17.150;2022-09-02T09:57:12;0.52;;;0.47;;
17631;SDS011;8934;51.194;17.150;2022-09-02T10:00:09;0.95;;;0.50;;
17631;SDS011;8934;51.194;17.150;2022-09-02T10:03:03;0.52;;;0.52;;
17631;SDS011;8934;51.194;17.150;2022-09-02T10:05:53;2.85;;;0.50;;
17631;SDS011;8934;51.194;17.150;2022-09-02T10:08:49;1.85;;;0.50;;
17631;SDS011;8934;51.194;17.150;2022-09-02T10:11:52;1.10;;;0.50;;
17631;SDS011;8934;51.194;17.150;2022-09-02T10:14:42;0.80;;;0.60;;
17631;SDS011;8934;51.194;17.150;2022-09-02T10:17:33;2.28;;;0.57;;
17631;SDS011;8934;51.194;17.150;2022-09-02T10:20:30;0.60;;;0.60;;
17631;SDS011;8934;51.194;17.150;2022-09-02T10:23:56;0.77;;;0.60;;
17631;SDS011;8934;51.194;17.150;2022-09-02T10:26:55;1.55;;;0.60;;
17631;SDS011;8934;51.194;17.150;2022-09-02T10:29:48;0.47;;;0.40;;
17631;SDS011;8934;51.194;17.150;2022-09-02T10:32:44;0.75;;;0.55;;
17631;SDS011;8934;51.194;17.150;2022-09-02T10:35:41;0.75;;;0.73;;
17631;SDS011;8934;51.194;17.150;2022-09-02T10:38:33;0.70;;;0.70;;
17631;SDS011;8934;51.194;17.150;2022-09-02T10:41:35;0.95;;;0.70;;
17631;SDS011;8934;51.194;17.150;2022-09-02T10:44:28;1.52;;;0.77;;
17631;SDS011;8934;51.194;17.150;2022-09-02T10:47:21;0.98;;;0.93;;
17631;SDS011;8934;51.194;17.150;2022-09-02T10:50:18;2.50;;;1.60;;
17631;SDS011;8934;51.194;17.150;2022-09-02T10:56:34;2.17;;;0.73;;
17631;SDS011;8934;51.194;17.150;2022-09-02T10:59:29;1.17;;;0.75;;
17631;SDS011;8934;51.194;17.150;2022-09-02T11:02:23;0.55;;;0.55;;
17631;SDS011;8934;51.194;17.150;2022-09-02T11:05:15;1.45;;;0.50;;
17631;SDS011;8934;51.194;17.150;2022-09-02T11:08:07;0.60;;;0.60;;
17631;SDS011;8934;51.194;17.150;2022-09-02T11:11:00;0.77;;;0.50;;
17631;SDS011;8934;51.194;17.150;2022-09-02T11:13:56;1.15;;;0.70;;
17631;SDS011;8934;51.194;17.150;2022-09-02T11:16:49;1.65;;;0.60;;
17631;SDS011;8934;51.194;17.150;2022-09-02T11:19:42;1.17;;;0.70;;
17631;SDS011;8934;51.194;17.150;2022-09-02T11:22:36;0.43;;;0.43;;
17631;SDS011;8934;51.194;17.150;2022-09-02T11:25:31;0.60;;;0.40;;
17631;SDS011;8934;51.194;17.150;2022-09-02T11:28:27;2.15;;;1.92;;
17631;SDS011;8934;51.194;17.150;2022-09-02T11:31:23;0.90;;;0.90;;
17631;SDS011;8934;51.194;17.150;2022-09-02T11:34:31;0.60;;;0.60;;
17631;SDS011;8934;51.194;17.150;2022-09-02T11:37:27;3.50;;;0.75;;
17631;SDS011;8934;51.194;17.150;2022-09-02T11:40:21;0.40;;;0.40;;
17631;SDS011;8934;51.194;17.150;2022-09-02T11:43:22;0.85;;;0.50;;
17631;SDS011;8934;51.194;17.150;2022-09-02T11:46:22;0.93;;;0.52;;
17631;SDS011;8934;51.194;17.150;2022-09-02T11:52:49;0.60;;;0.60;;
17631;SDS011;8934;51.194;17.150;2022-09-02T11:55:46;0.88;;;0.50;;
17631;SDS011;8934;51.194;17.150;2022-09-02T11:58:38;0.63;;;0.50;;
17631;SDS011;8934;51.194;17.150;2022-09-02T12:01:28;0.65;;;0.60;;
17631;SDS011;8934;51.194;17.150;2022-09-02T12:04:20;0.80;;;0.73;;
17631;SDS011;8934;51.194;17.150;2022-09-02T12:07:31;1.02;;;0.80;;
17631;SDS011;8934;51.194;17.150;2022-09-02T12:13:45;0.70;;;0.60;;
17631;SDS011;8934;51.194;17.150;2022-09-02T12:16:40;0.60;;;0.52;;
17631;SDS011;8934;51.194;17.150;2022-09-02T12:19:41;1.67;;;0.60;;
17631;SDS011;8934;51.194;17.150;2022-09-02T12:22:32;0.60;;;0.60;;
17631;SDS011;8934;51.194;17.150;2022-09-02T12:25:34;0.65;;;0.60;;
17631;SDS011;8934;51.194;17.150;2022-09-02T12:28:29;0.60;;;0.60;;
17631;SDS011;8934;51.194;17.150;2022-09-02T12:31:35;0.30;;;0.30;;
17631;SDS011;8934;51.194;17.150;2022-09-02T12:37:55;1.30;;;1.20;;
17631;SDS011;8934;51.194;17.150;2022-09-02T12:40:49;0.80;;;0.70;;
17631;SDS011;8934;51.194;17.150;2022-09-02T12:43:46;1.13;;;0.60;;
17631;SDS011;8934;51.194;17.150;2022-09-02T12:47:04;0.30;;;0.30;;
17631;SDS011;8934;51.194;17.150;2022-09-02T12:49:59;0.60;;;0.60;;
17631;SDS011;8934;51.194;17.150;2022-09-02T12:52:53;0.47;;;0.47;;
17631;SDS011;8934;51.194;17.150;2022-09-02T12:56:17;0.93;;;0.85;;
17631;SDS011;8934;51.194;17.150;2022-09-02T12:59:09;0.98;;;0.80;;
17631;SDS011;8934;51.194;17.150;2022-09-02T13:02:00;1.88;;;1.20;;
17631;SDS011;8934;51.194;17.150;2022-09-02T13:05:09;1.00;;;0.50;;
17631;SDS011;8934;51.194;17.150;2022-09-02T13:11:55;0.50;;;0.50;;
17631;SDS011;8934;51.194;17.150;2022-09-02T13:15:00;1.65;;;0.60;;
17631;SDS011;8934;51.194;17.150;2022-09-02T13:18:10;1.50;;;1.00;;
17631;SDS011;8934;51.194;17.150;2022-09-02T13:21:35;0.70;;;0.70;;
17631;SDS011;8934;51.194;17.150;2022-09-02T13:24:40;0.65;;;0.65;;
17631;SDS011;8934;51.194;17.150;2022-09-02T13:28:09;2.30;;;0.85;;
17631;SDS011;8934;51.194;17.150;2022-09-02T13:31:19;2.17;;;0.90;;
17631;SDS011;8934;51.194;17.150;2022-09-02T13:34:10;0.70;;;0.68;;
17631;SDS011;8934;51.194;17.150;2022-09-02T13:36:59;2.63;;;0.90;;
17631;SDS011;8934;51.194;17.150;2022-09-02T13:39:47;1.00;;;0.52;;
17631;SDS011;8934;51.194;17.150;2022-09-02T13:42:35;0.65;;;0.65;;
17631;SDS011;8934;51.194;17.150;2022-09-02T13:45:25;1.30;;;1.20;;
17631;SDS011;8934;51.194;17.150;2022-09-02T13:48:16;1.42;;;1.33;;
17631;SDS011;8934;51.194;17.150;2022-09-02T13:51:08;0.80;;;0.80;;
17631;SDS011;8934;51.194;17.150;2022-09-02T13:53:59;1.60;;;1.02;;
17631;SDS011;8934;51.194;17.150;2022-09-02T13:57:09;0.82;;;0.82;;
17631;SDS011;8934;51.194;17.150;2022-09-02T13:59:58;1.50;;;1.00;;
17631;SDS011;8934;51.194;17.150;2022-09-02T14:02:54;0.57;;;0.55;;
17631;SDS011;8934;51.194;17.150;2022-09-02T14:05:44;1.13;;;0.60;;
17631;SDS011;8934;51.194;17.150;2022-09-02T14:08:34;0.60;;;0.60;;
17631;SDS011;8934;51.194;17.150;2022-09-02T14:11:22;0.40;;;0.40;;
17631;SDS011;8934;51.194;17.150;2022-09-02T14:14:12;0.60;;;0.50;;
17631;SDS011;8934;51.194;17.150;2022-09-02T14:17:16;0.63;;;0.63;;
17631;SDS011;8934;51.194;17.150;2022-09-02T14:20:08;1.30;;;0.50;;
17631;SDS011;8934;51.194;17.150;2022-09-02T14:23:02;0.50;;;0.50;;
17631;SDS011;8934;51.194;17.150;2022-09-02T14:25:51;1.25;;;0.52;;
17631;SDS011;8934;51.194;17.150;2022-09-02T14:28:40;0.93;;;0.50;;
17631;SDS011;8934;51.194;17.150;2022-09-02T14:31:28;0.70;;;0.70;;
17631;SDS011;8934;51.194;17.150;2022-09-02T14:34:31;2.08;;;0.65;;
17631;SDS011;8934;51.194;17.150;2022-09-02T14:37:23;0.63;;;0.60;;
17631;SDS011;8934;51.194;17.150;2022-09-02T14:40:13;1.08;;;0.60;;
17631;SDS011;8934;51.194;17.150;2022-09-02T14:43:02;2.00;;;0.80;;
17631;SDS011;8934;51.194;17.150;2022-09-02T14:45:50;0.93;;;0.65;;
17631;SDS011;8934;51.194;17.150;2022-09-02T14:48:51;0.82;;;0.70;;
17631;SDS011;8934;51.194;17.150;2022-09-02T14:51:42;0.50;;;0.50;;
17631;SDS011;8934;51.194;17.150;2022-09-02T14:54:37;1.00;;;0.60;;
17631;SDS011;8934;51.194;17.150;2022-09-02T14:57:28;0.85;;;0.80;;
17631;SDS011;8934;51.194;17.150;2022-09-02T15:00:18;0.45;;;0.45;;
17631;SDS011;8934;51.194;17.150;2022-09-02T15:03:06;1.75;;;0.85;;
17631;SDS011;8934;51.194;17.150;2022-09-02T15:05:55;1.85;;;0.75;;
17631;SDS011;8934;51.194;17.150;2022-09-02T15:08:43;0.70;;;0.70;;
17631;SDS011;8934;51.194;17.150;2022-09-02T15:11:32;1.27;;;0.90;;
17631;SDS011;8934;51.194;17.150;2022-09-02T15:14:21;1.38;;;0.68;;
17631;SDS011;8934;51.194;17.150;2022-09-02T15:17:09;0.70;;;0.70;;
17631;SDS011;8934;51.194;17.150;2022-09-02T15:20:00;1.27;;;0.65;;
17631;SDS011;8934;51.194;17.150;2022-09-02T15:22:49;0.60;;;0.60;;
17631;SDS011;8934;51.194;17.150;2022-09-02T15:25:38;0.70;;;0.70;;
17631;SDS011;8934;51.194;17.150;2022-09-02T15:28:27;1.80;;;0.75;;
17631;SDS011;8934;51.194;17.150;2022-09-02T15:31:15;1.00;;;0.90;;
17631;SDS011;8934;51.194;17.150;2022-09-02T15:34:03;0.60;;;0.60;;
17631;SDS011;8934;51.194;17.150;2022-09-02T15:36:51;0.60;;;0.60;;
17631;SDS011;8934;51.194;17.150;2022-09-02T15:39:40;2.35;;;0.75;;
17631;SDS011;8934;51.194;17.150;2022-09-02T15:42:28;0.82;;;0.80;;
17631;SDS011;8934;51.194;17.150;2022-09-02T15:45:18;0.60;;;0.60;;
17631;SDS011;8934;51.194;17.150;2022-09-02T15:48:06;0.50;;;0.50;;
17631;SDS011;8934;51.194;17.150;2022-09-02T15:50:54;1.08;;;0.80;;
17631;SDS011;8934;51.194;17.150;2022-09-02T15:53:42;2.80;;;0.80;;
17631;SDS011;8934;51.194;17.150;2022-09-02T15:56:30;2.08;;;0.70;;
17631;SDS011;8934;51.194;17.150;2022-09-02T15:59:19;1.27;;;0.70;;
17631;SDS011;8934;51.194;17.150;2022-09-02T16:02:08;0.70;;;0.57;;
17631;SDS011;8934;51.194;17.150;2022-09-02T16:04:56;0.55;;;0.55;;
17631;SDS011;8934;51.194;17.150;2022-09-02T16:07:44;0.75;;;0.75;;
17631;SDS011;8934;51.194;17.150;2022-09-02T16:10:34;1.25;;;0.60;;
17631;SDS011;8934;51.194;17.150;2022-09-02T16:13:22;1.33;;;0.73;;
17631;SDS011;8934;51.194;17.150;2022-09-02T16:16:10;0.70;;;0.70;;
17631;SDS011;8934;51.194;17.150;2022-09-02T16:19:01;1.30;;;0.90;;
17631;SDS011;8934;51.194;17.150;2022-09-02T16:21:49;0.93;;;0.90;;
17631;SDS011;8934;51.194;17.150;2022-09-02T16:24:38;1.35;;;0.85;;
17631;SDS011;8934;51.194;17.150;2022-09-02T16:27:26;0.85;;;0.75;;
17631;SDS011;8934;51.194;17.150;2022-09-02T16:30:31;0.95;;;0.95;;
17631;SDS011;8934;51.194;17.150;2022-09-02T16:33:19;1.10;;;1.02;;
17631;SDS011;8934;51.194;17.150;2022-09-02T16:36:09;2.38;;;1.15;;
17631;SDS011;8934;51.194;17.150;2022-09-02T16:38:58;0.98;;;0.90;;
17631;SDS011;8934;51.194;17.150;2022-09-02T16:41:47;0.85;;;0.82;;
17631;SDS011;8934;51.194;17.150;2022-09-02T16:44:35;1.10;;;1.05;;
17631;SDS011;8934;51.194;17.150;2022-09-02T16:47:26;1.77;;;1.27;;
17631;SDS011;8934;51.194;17.150;2022-09-02T16:50:14;1.38;;;1.10;;
17631;SDS011;8934;51.194;17.150;2022-09-02T16:53:03;1.10;;;1.00;;
17631;SDS011;8934;51.194;17.150;2022-09-02T16:55:52;1.10;;;0.98;;
17631;SDS011;8934;51.194;17.150;2022-09-02T16:58:40;2.35;;;0.88;;
17631;SDS011;8934;51.194;17.150;2022-09-02T17:01:29;2.28;;;1.10;;
17631;SDS011;8934;51.194;17.150;2022-09-02T17:04:17;0.98;;;0.90;;
17631;SDS011;8934;51.194;17.150;2022-09-02T17:07:04;1.08;;;0.98;;
17631;SDS011;8934;51.194;17.150;2022-09-02T17:09:54;1.08;;;1.08;;
17631;SDS011;8934;51.194;17.150;2022-09-02T17:12:42;3.25;;;1.23;;
17631;SDS011;8934;51.194;17.150;2022-09-02T17:15:30;1.42;;;1.10;;
17631;SDS011;8934;51.194;17.150;2022-09-02T17:18:18;3.03;;;1.30;;
17631;SDS011;8934;51.194;17.150;2022-09-02T17:21:14;1.38;;;1.27;;
17631;SDS011;8934;51.194;17.150;2022-09-02T17:24:06;1.15;;;1.13;;
17631;SDS011;8934;51.194;17.150;2022-09-02T17:26:56;1.83;;;1.23;;
17631;SDS011;8934;51.194;17.150;2022-09-02T17:29:45;1.05;;;1.05;;
17631;SDS011;8934;51.194;17.150;2022-09-02T17:32:35;2.05;;;1.38;;
17631;SDS011;8934;51.194;17.150;2022-09-02T17:35:23;1.23;;;1.10;;
17631;SDS011;8934;51.194;17.150;2022-09-02T17:38:10;1.33;;;1.20;;